createdAt,value
2022-08-25T00:02:13.213Z,53.20
2022-08-25T00:04:40.461Z,53.20
2022-08-25T00:07:09.221Z,53.20
2022-08-25T00:09:35.967Z,53.40
2022-08-25T00:12:03.882Z,53.40
2022-08-25T00:14:34.996Z,53.40
2022-08-25T00:17:02.020Z,53.60
2022-08-25T00:19:32.688Z,53.50
2022-08-25T00:22:00.768Z,53.60
2022-08-25T00:24:27.998Z,53.70
2022-08-25T00:26:57.590Z,53.80
2022-08-25T00:29:26.111Z,53.90
2022-08-25T00:31:54.363Z,53.90
2022-08-25T00:34:30.283Z,54.00
2022-08-25T00:36:57.342Z,54.20
2022-08-25T00:39:24.432Z,54.10
2022-08-25T00:41:53.918Z,54.10
2022-08-25T00:44:21.095Z,54.20
2022-08-25T00:46:50.888Z,54.20
2022-08-25T00:49:25.395Z,54.40
2022-08-25T00:52:04.374Z,54.30
2022-08-25T00:54:41.952Z,54.20
2022-08-25T00:57:12.875Z,54.60
2022-08-25T00:59:40.180Z,54.60
2022-08-25T01:02:13.733Z,54.50
2022-08-25T01:04:48.638Z,54.60
2022-08-25T01:07:18.569Z,54.70
2022-08-25T01:09:47.589Z,54.80
2022-08-25T01:12:14.971Z,54.70
2022-08-25T01:14:45.870Z,54.80
2022-08-25T01:17:13.565Z,54.90
2022-08-25T01:19:40.388Z,54.90
2022-08-25T01:22:07.577Z,55.00
2022-08-25T01:25:01.489Z,55.10
2022-08-25T01:27:28.215Z,55.20
2022-08-25T01:29:54.900Z,55.00
2022-08-25T01:32:21.569Z,55.10
2022-08-25T01:34:48.261Z,55.20
2022-08-25T01:37:16.829Z,55.20
2022-08-25T01:39:43.851Z,55.20
2022-08-25T01:42:24.869Z,55.30
2022-08-25T01:44:51.530Z,55.60
2022-08-25T01:47:18.397Z,55.30
2022-08-25T01:49:45.267Z,55.50
2022-08-25T01:52:33.629Z,55.60
2022-08-25T01:55:00.299Z,55.50
2022-08-25T01:57:30.086Z,55.60
2022-08-25T01:59:57.206Z,55.70
2022-08-25T02:02:24.081Z,55.70
2022-08-25T02:04:53.129Z,55.80
2022-08-25T02:07:20.198Z,55.90
2022-08-25T02:09:47.082Z,55.80
2022-08-25T02:12:13.844Z,55.80
2022-08-25T02:14:40.666Z,55.90
2022-08-25T02:17:09.707Z,56.00
2022-08-25T02:19:36.465Z,56.00
2022-08-25T02:22:03.471Z,56.60
2022-08-25T02:24:30.281Z,56.00
2022-08-25T02:26:58.027Z,56.00
2022-08-25T02:29:24.891Z,56.10
2022-08-25T02:31:51.542Z,56.20
2022-08-25T02:34:18.322Z,56.10
2022-08-25T02:36:45.002Z,56.40
2022-08-25T02:39:12.461Z,56.40
2022-08-25T02:41:39.639Z,56.40
2022-08-25T02:44:07.667Z,56.50
2022-08-25T02:46:34.441Z,56.50
2022-08-25T02:49:01.151Z,56.50
2022-08-25T02:51:31.837Z,56.60
2022-08-25T02:54:01.245Z,56.70
2022-08-25T02:56:29.337Z,56.70
2022-08-25T02:58:56.051Z,56.80
2022-08-25T03:01:28.391Z,56.80
2022-08-25T03:03:56.191Z,57.00
2022-08-25T03:06:24.022Z,56.90
2022-08-25T03:08:51.882Z,57.60
2022-08-25T03:11:18.901Z,57.10
2022-08-25T03:13:45.655Z,57.30
2022-08-25T03:16:12.981Z,57.30
2022-08-25T03:18:42.120Z,57.30
2022-08-25T03:21:11.407Z,57.60
2022-08-25T03:23:39.815Z,57.70
2022-08-25T03:26:25.059Z,57.50
2022-08-25T03:28:51.797Z,57.60
2022-08-25T03:31:19.069Z,57.70
2022-08-25T03:33:46.132Z,57.70
2022-08-25T03:36:12.778Z,57.80
2022-08-25T03:38:41.345Z,57.60
2022-08-25T03:41:18.100Z,57.70
2022-08-25T03:43:44.970Z,57.90
2022-08-25T03:46:24.001Z,57.70
2022-08-25T03:48:51.898Z,58.00
2022-08-25T03:51:28.660Z,57.80
2022-08-25T03:53:56.439Z,58.10
2022-08-25T03:56:23.123Z,57.80
2022-08-25T03:58:51.421Z,57.80
2022-08-25T04:01:18.368Z,58.00
2022-08-25T04:03:45.820Z,57.90
2022-08-25T04:06:13.215Z,58.00
2022-08-25T04:08:40.007Z,58.10
2022-08-25T04:11:10.865Z,58.10
2022-08-25T04:13:37.784Z,58.30
2022-08-25T04:16:11.719Z,58.30
2022-08-25T04:18:39.061Z,58.50
2022-08-25T04:21:06.806Z,58.40
2022-08-25T04:23:33.930Z,58.50
2022-08-25T04:26:01.331Z,58.50
2022-08-25T04:28:28.063Z,58.50
2022-08-25T04:30:54.727Z,58.60
2022-08-25T04:33:21.423Z,58.70
2022-08-25T04:35:49.637Z,58.80
2022-08-25T04:38:16.342Z,59.00
2022-08-25T04:40:43.157Z,59.00
2022-08-25T04:43:10.205Z,59.00
2022-08-25T04:45:39.010Z,59.20
2022-08-25T04:48:06.591Z,59.40
2022-08-25T04:50:33.492Z,59.30
2022-08-25T04:53:00.299Z,59.30
2022-08-25T04:55:27.011Z,59.40
2022-08-25T04:57:53.729Z,59.50
2022-08-25T05:00:20.457Z,59.50
2022-08-25T05:02:47.193Z,59.50
2022-08-25T05:05:13.988Z,59.60
2022-08-25T05:07:40.638Z,59.70
2022-08-25T05:10:07.789Z,59.80
2022-08-25T05:12:36.112Z,59.90
2022-08-25T05:15:23.229Z,59.90
2022-08-25T05:17:52.677Z,60.10
2022-08-25T05:20:22.650Z,60.20
2022-08-25T05:22:49.388Z,60.40
2022-08-25T05:25:16.130Z,60.50
2022-08-25T05:27:43.626Z,60.50
2022-08-25T05:30:11.973Z,60.60
2022-08-25T05:32:39.098Z,61.00
2022-08-25T05:35:07.220Z,61.10
2022-08-25T05:37:33.998Z,61.30
2022-08-25T05:40:00.995Z,61.50
2022-08-25T05:42:28.847Z,61.50
2022-08-25T05:44:55.523Z,61.50
2022-08-25T05:47:22.149Z,61.60
2022-08-25T05:49:48.919Z,61.70
2022-08-25T05:52:18.205Z,61.60
2022-08-25T05:54:47.022Z,61.60
2022-08-25T05:57:14.220Z,61.70
2022-08-25T05:59:41.136Z,61.90
2022-08-25T06:02:26.337Z,62.10
2022-08-25T06:04:53.033Z,62.10
2022-08-25T06:07:19.713Z,62.10
2022-08-25T06:09:48.801Z,62.30
2022-08-25T06:12:17.218Z,62.40
2022-08-25T06:14:43.926Z,62.80
2022-08-25T06:17:10.678Z,62.80
2022-08-25T06:19:39.685Z,63.00
2022-08-25T06:22:08.203Z,63.30
2022-08-25T06:24:34.978Z,63.20
2022-08-25T06:27:01.727Z,64.00
2022-08-25T06:29:29.057Z,63.30
2022-08-25T06:31:55.757Z,63.50
2022-08-25T06:34:24.161Z,63.70
2022-08-25T06:36:51.293Z,63.90
2022-08-25T06:39:18.011Z,64.00
2022-08-25T06:41:44.766Z,64.40
2022-08-25T06:44:12.081Z,65.40
2022-08-25T06:46:38.843Z,64.70
2022-08-25T06:49:06.624Z,64.90
2022-08-25T06:51:35.814Z,64.90
2022-08-25T06:54:03.281Z,64.90
2022-08-25T06:56:29.965Z,64.60
2022-08-25T06:58:56.629Z,64.30
2022-08-25T07:01:26.821Z,64.10
2022-08-25T07:03:59.515Z,63.60
2022-08-25T07:06:27.773Z,63.20
2022-08-25T07:08:55.021Z,63.10
2022-08-25T07:11:21.779Z,62.70
2022-08-25T07:13:50.356Z,62.10
2022-08-25T07:16:20.191Z,61.70
2022-08-25T07:18:47.639Z,61.10
2022-08-25T07:21:15.658Z,60.70
2022-08-25T07:23:42.968Z,60.20
2022-08-25T07:26:27.138Z,59.30
2022-08-25T07:28:59.954Z,59.10
2022-08-25T07:31:29.905Z,59.40
2022-08-25T07:34:16.344Z,58.50
2022-08-25T07:36:43.697Z,58.20
2022-08-25T07:39:10.789Z,58.00
2022-08-25T07:41:40.234Z,57.30
2022-08-25T07:44:08.500Z,56.60
2022-08-25T07:46:35.272Z,56.50
2022-08-25T07:49:02.292Z,56.50
2022-08-25T07:51:29.049Z,55.80
2022-08-25T07:53:55.822Z,55.50
2022-08-25T07:56:22.591Z,55.00
2022-08-25T07:58:49.274Z,54.80
2022-08-25T08:01:22.236Z,54.40
2022-08-25T08:03:51.009Z,53.80
2022-08-25T08:06:20.740Z,53.90
2022-08-25T08:08:49.701Z,53.70
2022-08-25T08:11:26.960Z,53.20
2022-08-25T08:13:55.952Z,52.60
2022-08-25T08:16:25.041Z,52.80
2022-08-25T08:18:52.196Z,52.20
2022-08-25T08:21:22.472Z,51.90
2022-08-25T08:23:54.322Z,51.10
2022-08-25T08:26:36.473Z,51.00
2022-08-25T08:29:08.758Z,50.80
2022-08-25T08:31:36.733Z,50.60
2022-08-25T08:34:03.628Z,51.00
2022-08-25T08:36:30.309Z,49.90
2022-08-25T08:38:57.034Z,49.70
2022-08-25T08:42:12.013Z,49.90
2022-08-25T08:44:45.025Z,49.20
2022-08-25T08:47:27.277Z,49.50
2022-08-25T08:50:02.514Z,49.10
2022-08-25T08:52:37.987Z,49.30
2022-08-25T08:55:11.461Z,48.00
2022-08-25T08:57:51.766Z,47.80
2022-08-25T09:00:18.609Z,47.00
2022-08-25T09:02:52.542Z,47.10
2022-08-25T09:05:22.554Z,46.30
2022-08-25T09:07:56.494Z,46.10
2022-08-25T09:10:26.109Z,45.90
2022-08-25T09:13:02.800Z,45.70
2022-08-25T09:16:07.971Z,45.20
2022-08-25T09:18:52.596Z,45.40
2022-08-25T09:21:46.950Z,45.20
2022-08-25T09:24:37.417Z,45.20
2022-08-25T09:27:19.044Z,45.10
2022-08-25T09:29:56.333Z,45.10
2022-08-25T09:32:24.435Z,45.30
2022-08-25T09:34:59.392Z,45.30
2022-08-25T09:37:26.764Z,45.60
2022-08-25T09:39:55.136Z,45.50
2022-08-25T09:42:49.783Z,45.70
2022-08-25T09:45:16.956Z,44.70
2022-08-25T09:47:45.403Z,44.90
2022-08-25T09:50:19.986Z,44.60
2022-08-25T09:52:46.655Z,44.60
2022-08-25T09:55:29.764Z,44.70
2022-08-25T09:57:59.406Z,43.90
2022-08-25T10:00:28.660Z,44.40
2022-08-25T10:03:22.700Z,44.40
2022-08-25T10:06:05.423Z,42.60
2022-08-25T10:08:45.739Z,42.90
2022-08-25T10:11:33.179Z,43.20
2022-08-25T10:14:17.048Z,41.90
2022-08-25T10:16:46.815Z,42.30
2022-08-25T10:19:22.589Z,42.50
2022-08-25T10:22:10.907Z,42.30
2022-08-25T10:24:40.976Z,41.70
2022-08-25T10:27:30.686Z,42.00
2022-08-25T10:30:06.818Z,41.90
2022-08-25T10:32:40.140Z,41.70
2022-08-25T10:35:22.764Z,42.00
2022-08-25T10:38:14.142Z,41.00
2022-08-25T10:41:00.229Z,40.80
2022-08-25T10:43:43.434Z,40.60
2022-08-25T10:46:21.220Z,39.20
2022-08-25T10:49:10.076Z,39.20
2022-08-25T10:52:03.707Z,39.40
2022-08-25T10:54:36.841Z,39.50
2022-08-25T10:57:25.914Z,40.10
2022-08-25T11:00:09.894Z,40.30
2022-08-25T11:03:07.610Z,40.90
2022-08-25T11:05:58.775Z,40.60
2022-08-25T11:08:36.158Z,41.20
2022-08-25T11:11:21.664Z,41.30
2022-08-25T11:13:55.000Z,41.00
2022-08-25T11:16:34.112Z,41.10
2022-08-25T11:19:15.684Z,41.40
2022-08-25T11:22:33.074Z,41.60
2022-08-25T11:25:14.354Z,42.00
2022-08-25T11:27:52.652Z,42.40
2022-08-25T11:30:20.347Z,42.50
2022-08-25T11:32:50.932Z,42.40
2022-08-25T11:35:32.770Z,42.50
2022-08-25T11:38:20.926Z,42.40
2022-08-25T11:41:03.248Z,42.50
2022-08-25T11:43:48.861Z,42.20
2022-08-25T11:46:33.530Z,42.20
2022-08-25T11:49:32.457Z,42.70
2022-08-25T11:52:02.709Z,42.90
2022-08-25T11:54:42.832Z,43.30
2022-08-25T11:57:22.960Z,43.40
2022-08-25T11:59:49.659Z,43.40
2022-08-25T12:02:36.432Z,43.60
2022-08-25T12:05:23.286Z,44.00
2022-08-25T12:08:11.664Z,43.90
2022-08-25T12:11:00.201Z,44.10
2022-08-25T12:13:48.228Z,43.90
2022-08-25T12:16:44.338Z,44.50
2022-08-25T12:19:35.042Z,44.50
2022-08-25T12:22:03.459Z,44.50
2022-08-25T12:24:48.053Z,44.60
2022-08-25T12:27:58.074Z,44.80
2022-08-25T12:30:50.616Z,44.90
2022-08-25T12:33:39.906Z,45.20
2022-08-25T12:36:11.346Z,45.20
2022-08-25T12:38:52.235Z,45.20
2022-08-25T12:41:31.095Z,45.60
2022-08-25T12:44:34.828Z,45.80
2022-08-25T12:47:33.976Z,45.70
2022-08-25T12:50:25.399Z,45.70
2022-08-25T12:52:53.677Z,46.10
2022-08-25T12:55:26.128Z,45.60
2022-08-25T12:57:58.680Z,45.50
2022-08-25T13:00:29.924Z,45.70
2022-08-25T13:03:23.191Z,45.50
2022-08-25T13:06:22.022Z,45.60
2022-08-25T13:08:57.585Z,46.00
2022-08-25T13:11:39.508Z,46.00
2022-08-25T13:14:38.189Z,46.20
2022-08-25T13:17:05.698Z,46.30
2022-08-25T13:19:35.164Z,45.90
2022-08-25T13:22:15.417Z,46.30
2022-08-25T13:24:44.083Z,46.40
2022-08-25T13:27:22.696Z,46.30
2022-08-25T13:29:55.803Z,46.70
2022-08-25T13:32:35.470Z,46.80
2022-08-25T13:35:32.897Z,46.80
2022-08-25T13:38:14.400Z,46.70
2022-08-25T13:40:41.898Z,46.80
2022-08-25T13:43:12.689Z,47.00
2022-08-25T13:45:48.054Z,46.80
2022-08-25T13:48:33.867Z,46.80
2022-08-25T13:51:17.220Z,46.90
2022-08-25T13:53:50.112Z,46.80
2022-08-25T13:56:32.853Z,47.10
2022-08-25T13:59:18.368Z,46.90
2022-08-25T14:01:49.675Z,46.80
2022-08-25T14:04:51.168Z,46.90
2022-08-25T14:07:22.334Z,46.80
2022-08-25T14:09:59.958Z,46.70
2022-08-25T14:12:48.117Z,46.80
2022-08-25T14:15:21.837Z,46.50
2022-08-25T14:18:00.912Z,46.60
2022-08-25T14:20:30.878Z,46.50
2022-08-25T14:23:04.060Z,46.30
2022-08-25T14:25:35.146Z,46.30
2022-08-25T14:28:07.307Z,46.20
2022-08-25T14:30:53.808Z,46.00
2022-08-25T14:33:28.141Z,46.20
2022-08-25T14:35:58.812Z,46.40
2022-08-25T14:38:25.964Z,46.50
2022-08-25T14:40:53.410Z,46.50
2022-08-25T14:43:23.800Z,46.40
2022-08-25T14:45:51.849Z,46.30
2022-08-25T14:48:42.508Z,46.40
2022-08-25T14:51:11.868Z,46.40
2022-08-25T14:53:38.891Z,46.40
2022-08-25T14:56:10.310Z,47.20
2022-08-25T14:58:50.928Z,46.40
2022-08-25T15:01:28.436Z,46.40
2022-08-25T15:04:01.913Z,46.40
2022-08-25T15:06:29.342Z,46.40
2022-08-25T15:09:08.308Z,46.60
2022-08-25T15:11:36.329Z,46.60
2022-08-25T15:14:06.096Z,46.60
2022-08-25T15:16:41.882Z,46.50
2022-08-25T15:19:11.681Z,46.30
2022-08-25T15:21:39.451Z,46.20
2022-08-25T15:24:08.720Z,46.40
2022-08-25T15:29:22.160Z,46.50
2022-08-25T15:31:50.091Z,46.40
2022-08-25T15:34:17.644Z,46.40
2022-08-25T15:36:45.406Z,46.30
2022-08-25T15:39:12.622Z,46.20
2022-08-25T15:41:39.639Z,46.10
2022-08-25T15:44:11.264Z,46.10
2022-08-25T15:46:41.265Z,46.10
2022-08-25T15:49:08.114Z,46.10
2022-08-25T15:51:34.992Z,46.30
2022-08-25T15:54:01.963Z,46.50
2022-08-25T15:56:28.621Z,46.50
2022-08-25T15:58:55.585Z,46.70
2022-08-25T16:01:25.233Z,46.60
2022-08-25T16:03:52.816Z,46.80
2022-08-25T16:06:20.027Z,46.90
2022-08-25T16:08:47.537Z,46.90
2022-08-25T16:11:25.514Z,47.00
2022-08-25T16:13:54.054Z,47.00
2022-08-25T16:16:22.795Z,46.90
2022-08-25T16:18:52.084Z,47.00
2022-08-25T16:21:24.031Z,47.00
2022-08-25T16:23:59.778Z,47.10
2022-08-25T16:26:29.958Z,47.10
2022-08-25T16:28:56.771Z,47.20
2022-08-25T16:31:24.109Z,47.20
2022-08-25T16:33:53.540Z,47.20
2022-08-25T16:36:25.027Z,47.20
2022-08-25T16:38:54.737Z,47.20
2022-08-25T16:41:25.386Z,47.30
2022-08-25T16:43:52.351Z,47.30
2022-08-25T16:46:21.189Z,47.30
2022-08-25T16:48:48.637Z,47.40
2022-08-25T16:51:19.315Z,47.50
2022-08-25T16:54:08.145Z,47.30
2022-08-25T16:56:37.054Z,47.30
2022-08-25T16:59:06.348Z,47.40
2022-08-25T17:01:35.186Z,47.50
2022-08-25T17:04:03.140Z,47.50
2022-08-25T17:06:33.493Z,47.50
2022-08-25T17:09:00.211Z,47.50
2022-08-25T17:11:30.109Z,47.50
2022-08-25T17:13:59.292Z,47.50
2022-08-25T17:16:31.385Z,47.70
2022-08-25T17:19:05.152Z,47.70
2022-08-25T17:21:35.896Z,47.60
2022-08-25T17:24:04.842Z,47.80
2022-08-25T17:26:31.943Z,47.70
2022-08-25T17:29:01.204Z,47.70
2022-08-25T17:31:30.033Z,47.70
2022-08-25T17:33:58.176Z,47.70
2022-08-25T17:36:27.226Z,47.80
2022-08-25T17:38:54.921Z,47.90
2022-08-25T17:41:23.801Z,48.10
2022-08-25T17:43:50.600Z,48.20
2022-08-25T17:46:17.766Z,48.60
2022-08-25T17:48:45.109Z,48.60
2022-08-25T17:51:12.257Z,48.60
2022-08-25T17:53:39.398Z,49.00
2022-08-25T17:56:09.619Z,49.10
2022-08-25T17:58:37.359Z,49.50
2022-08-25T18:01:05.345Z,49.40
2022-08-25T18:03:32.463Z,49.30
2022-08-25T18:05:59.261Z,49.10
2022-08-25T18:08:32.270Z,49.20
2022-08-25T18:11:03.437Z,49.60
2022-08-25T18:13:31.375Z,49.70
2022-08-25T18:15:58.674Z,49.70
2022-08-25T18:18:25.681Z,49.60
2022-08-25T18:20:52.625Z,50.00
2022-08-25T18:23:19.750Z,49.80
2022-08-25T18:25:48.622Z,50.00
2022-08-25T18:28:15.792Z,50.00
2022-08-25T18:30:43.109Z,50.30
2022-08-25T18:33:10.674Z,50.30
2022-08-25T18:35:38.343Z,50.20
2022-08-25T18:38:24.482Z,50.20
2022-08-25T18:40:59.295Z,50.30
2022-08-25T18:43:28.022Z,50.40
2022-08-25T18:46:01.847Z,50.30
2022-08-25T18:48:28.771Z,50.50
2022-08-25T18:50:56.624Z,50.60
2022-08-25T18:53:30.440Z,50.80
2022-08-25T18:56:04.565Z,50.90
2022-08-25T18:58:31.505Z,50.80
2022-08-25T19:00:58.162Z,51.00
2022-08-25T19:03:25.155Z,51.40
2022-08-25T19:05:57.120Z,51.70
2022-08-25T19:08:24.784Z,51.90
2022-08-25T19:10:53.185Z,52.40
2022-08-25T19:13:22.764Z,52.10
2022-08-25T19:15:52.339Z,52.80
2022-08-25T19:18:25.954Z,53.20
2022-08-25T19:20:56.153Z,52.80
2022-08-25T19:23:22.821Z,54.00
2022-08-25T19:25:49.576Z,54.50
2022-08-25T19:28:16.707Z,53.40
2022-08-25T19:30:49.834Z,53.80
2022-08-25T19:33:42.038Z,55.60
2022-08-25T19:36:08.718Z,55.60
2022-08-25T19:38:36.966Z,54.70
2022-08-25T19:41:13.913Z,54.90
2022-08-25T19:43:55.999Z,55.10
2022-08-25T19:46:33.336Z,55.40
2022-08-25T19:49:08.119Z,54.80
2022-08-25T19:51:37.468Z,55.00
2022-08-25T19:54:05.632Z,55.30
2022-08-25T19:56:35.021Z,55.50
2022-08-25T19:59:03.744Z,55.10
2022-08-25T20:01:30.659Z,54.90
2022-08-25T20:03:57.393Z,54.40
2022-08-25T20:06:24.413Z,54.30
2022-08-25T20:08:58.881Z,54.10
2022-08-25T20:11:29.811Z,54.00
2022-08-25T20:14:02.987Z,54.00
2022-08-25T20:16:30.639Z,53.90
2022-08-25T20:18:58.468Z,53.80
2022-08-25T20:21:25.599Z,53.90
2022-08-25T20:24:11.254Z,54.10
2022-08-25T20:26:37.950Z,54.70
2022-08-25T20:29:07.446Z,54.60
2022-08-25T20:31:34.119Z,54.30
2022-08-25T20:34:02.948Z,54.20
2022-08-25T20:36:30.218Z,54.20
2022-08-25T20:38:59.179Z,55.10
2022-08-25T20:41:26.202Z,54.70
2022-08-25T20:43:53.884Z,55.50
2022-08-25T20:46:22.400Z,54.70
2022-08-25T20:48:49.110Z,54.70
2022-08-25T20:51:15.840Z,54.50
2022-08-25T20:53:45.847Z,54.50
2022-08-25T20:56:15.133Z,54.50
2022-08-25T20:58:43.143Z,54.50
2022-08-25T21:01:20.425Z,54.40
2022-08-25T21:03:50.650Z,54.50
2022-08-25T21:06:17.772Z,54.40
2022-08-25T21:08:47.198Z,54.40
2022-08-25T21:11:17.846Z,54.40
2022-08-25T21:13:45.756Z,54.40
2022-08-25T21:16:12.611Z,54.60
2022-08-25T21:18:44.177Z,54.60
2022-08-25T21:21:16.685Z,54.50
2022-08-25T21:23:46.805Z,54.50
2022-08-25T21:26:15.673Z,54.60
2022-08-25T21:28:47.843Z,54.50
2022-08-25T21:31:15.992Z,54.50
2022-08-25T21:33:43.067Z,54.60
2022-08-25T21:36:11.151Z,54.60
2022-08-25T21:38:39.955Z,54.70
2022-08-25T21:41:18.854Z,54.60
2022-08-25T21:43:46.282Z,54.90
2022-08-25T21:46:21.030Z,54.70
2022-08-25T21:48:50.010Z,54.80
2022-08-25T21:51:29.063Z,54.80
2022-08-25T21:54:08.755Z,55.00
2022-08-25T21:56:37.867Z,55.00
2022-08-25T21:59:05.951Z,55.00
2022-08-25T22:01:33.605Z,55.10
2022-08-25T22:04:02.099Z,55.10
2022-08-25T22:06:30.254Z,55.20
2022-08-25T22:08:57.407Z,55.30
2022-08-25T22:11:26.706Z,55.30
2022-08-25T22:13:54.878Z,56.00
2022-08-25T22:16:23.757Z,55.50
2022-08-25T22:18:51.243Z,55.60
2022-08-25T22:21:20.004Z,55.80
2022-08-25T22:23:46.928Z,55.90
2022-08-25T22:26:16.501Z,55.90
2022-08-25T22:28:48.875Z,56.00
2022-08-25T22:31:20.673Z,55.90
2022-08-25T22:33:48.547Z,56.10
2022-08-25T22:36:28.124Z,56.20
2022-08-25T22:38:55.656Z,56.40
2022-08-25T22:41:23.981Z,56.30
2022-08-25T22:43:53.009Z,56.30
2022-08-25T22:46:21.450Z,56.40
2022-08-25T22:48:50.271Z,56.60
2022-08-25T22:51:31.355Z,56.60
2022-08-25T22:53:59.201Z,56.90
2022-08-25T22:56:31.892Z,56.70
2022-08-25T22:59:03.130Z,56.80
2022-08-25T23:01:31.780Z,56.70
2022-08-25T23:04:00.863Z,56.90
2022-08-25T23:06:29.568Z,57.10
2022-08-25T23:08:56.904Z,57.10
2022-08-25T23:11:24.655Z,57.10
2022-08-25T23:13:55.321Z,57.60
2022-08-25T23:16:22.837Z,57.70
2022-08-25T23:18:49.777Z,57.40
2022-08-25T23:21:40.812Z,57.50
2022-08-25T23:24:08.939Z,57.60
2022-08-25T23:26:38.368Z,57.60
2022-08-25T23:29:17.530Z,57.60
2022-08-25T23:31:45.125Z,57.60
2022-08-25T23:34:11.895Z,57.60
2022-08-25T23:36:40.179Z,57.70
2022-08-25T23:39:07.739Z,57.80
2022-08-25T23:41:36.998Z,58.00
2022-08-25T23:44:09.387Z,58.20
2022-08-25T23:46:39.284Z,58.40
2022-08-25T23:49:08.156Z,58.70
2022-08-25T23:51:38.291Z,58.80
2022-08-25T23:54:09.223Z,58.90
2022-08-25T23:56:37.599Z,59.00
2022-08-25T23:59:13.029Z,59.10
